Time;durP1;ratioP1;P1;durP2;ratioP2;P2;SDS_P1;SDS_P2;PMS_P1;PMS_P2;Temp;Humidity;BMP_temperature;BMP_pressure;BME280_temperature;BME280_humidity;BME280_pressure;Samples;Min_cycle;Max_cycle;Signal;HPM_P1;HPM_P2
2024/04/05 00:01:37;;;;;;;13.30;3.40;;;;;;;11.56;100.00;100317.09;4920418;29;20052;-83
2024/04/05 00:04:05;;;;;;;11.32;3.83;;;;;;;11.48;100.00;100316.38;4902957;29;20051;-85
2024/04/05 00:06:32;;;;;;;17.20;4.47;;;;;;;11.44;100.00;100320.81;4907993;29;20052;-85
2024/04/05 00:08:57;;;;;;;10.75;4.63;;;;;;;11.39;100.00;100320.91;4919209;29;20043;-86
2024/04/05 00:11:24;;;;;;;11.55;3.85;;;;;;;11.33;100.00;100326.25;4919391;29;20055;-87
2024/04/05 00:13:50;;;;;;;23.98;4.65;;;;;;;11.30;100.00;100323.66;4902590;29;20079;-86
2024/04/05 00:16:17;;;;;;;13.88;3.25;;;;;;;11.25;100.00;100323.78;4905720;29;20079;-85
2024/04/05 00:18:45;;;;;;;14.35;3.30;;;;;;;11.19;100.00;100329.09;4904171;29;21013;-87
2024/04/05 00:21:15;;;;;;;18.42;3.97;;;;;;;11.14;100.00;100336.19;4908974;29;20075;-86
2024/04/05 00:23:40;;;;;;;15.82;3.92;;;;;;;11.14;100.00;100343.19;4908152;29;20078;-86
2024/04/05 00:26:09;;;;;;;19.10;5.40;;;;;;;11.11;100.00;100341.47;4906681;29;20040;-87
2024/04/05 00:28:36;;;;;;;25.13;5.28;;;;;;;11.09;100.00;100341.50;4922327;29;20047;-86
2024/04/05 00:31:04;;;;;;;16.85;3.00;;;;;;;11.05;100.00;100341.56;4925092;29;20044;-87
2024/04/05 00:33:31;;;;;;;11.98;3.38;;;;;;;11.00;100.00;100344.28;4925299;29;20027;-86
2024/04/05 00:35:58;;;;;;;16.52;3.78;;;;;;;11.02;100.00;100346.88;4905916;29;20076;-86
2024/04/05 00:38:25;;;;;;;13.57;3.55;;;;;;;10.97;100.00;100343.44;4909718;29;20098;-85
2024/04/05 00:40:53;;;;;;;19.48;4.35;;;;;;;10.96;100.00;100344.34;4905528;29;20044;-86
2024/04/05 00:43:22;;;;;;;17.88;3.53;;;;;;;10.95;100.00;100346.09;4926307;29;20051;-85
2024/04/05 00:45:52;;;;;;;18.30;4.25;;;;;;;10.93;100.00;100345.25;4940639;28;20063;-84
2024/04/05 00:48:22;;;;;;;17.27;3.05;;;;;;;10.92;100.00;100340.88;4925870;29;20479;-86
2024/04/05 00:50:56;;;;;;;18.63;3.50;;;;;;;10.93;100.00;100342.63;4941056;28;20051;-86
2024/04/05 00:53:31;;;;;;;20.70;4.63;;;;;;;10.86;100.00;100343.59;4924546;29;20083;-86
2024/04/05 00:55:59;;;;;;;16.40;3.42;;;;;;;10.83;100.00;100341.03;4925453;29;20059;-86
2024/04/05 00:58:28;;;;;;;19.77;5.53;;;;;;;10.75;100.00;100349.88;4910947;29;20107;-86
2024/04/05 01:00:55;;;;;;;19.02;5.82;;;;;;;10.70;100.00;100349.09;4921583;28;20058;-86
2024/04/05 01:03:21;;;;;;;19.00;4.25;;;;;;;10.62;100.00;100347.44;4915720;29;20058;-87
2024/04/05 01:05:51;;;;;;;10.55;3.85;;;;;;;10.58;100.00;100351.84;4925325;28;20051;-85
2024/04/05 01:08:17;;;;;;;18.80;5.38;;;;;;;10.54;100.00;100353.66;4925796;29;20043;-86
2024/04/05 01:10:44;;;;;;;11.60;3.55;;;;;;;10.47;100.00;100361.59;4922232;28;20126;-84
2024/04/05 01:13:12;;;;;;;13.48;4.22;;;;;;;10.39;100.00;100359.97;4924654;29;20578;-85
2024/04/05 01:15:39;;;;;;;21.52;6.53;;;;;;;10.35;100.00;100359.97;4929979;28;20115;-87
2024/04/05 01:18:08;;;;;;;17.92;6.45;;;;;;;10.34;100.00;100353.88;4928887;29;20400;-87
2024/04/05 01:20:37;;;;;;;13.18;4.22;;;;;;;10.30;100.00;100361.78;4927795;28;20105;-87
2024/04/05 01:23:08;;;;;;;15.88;4.10;;;;;;;10.27;100.00;100357.44;4927504;29;20130;-84
2024/04/05 01:25:42;;;;;;;15.35;4.60;;;;;;;10.22;100.00;100356.63;4941597;28;20043;-88
2024/04/05 01:28:14;;;;;;;20.58;4.05;;;;;;;10.15;100.00;100361.09;4946470;29;20067;-87
2024/04/05 01:30:48;;;;;;;15.82;4.75;;;;;;;10.10;100.00;100353.31;4930800;28;20075;-85
2024/04/05 01:33:17;;;;;;;12.85;4.20;;;;;;;10.08;100.00;100349.84;4942840;29;20065;-86
2024/04/05 01:35:44;;;;;;;16.88;4.20;;;;;;;10.03;100.00;100350.78;4938831;29;20092;-86
2024/04/05 01:38:13;;;;;;;17.58;4.13;;;;;;;10.01;100.00;100347.31;4941564;29;20042;-86
2024/04/05 01:40:42;;;;;;;13.65;4.05;;;;;;;9.99;100.00;100347.34;4936463;28;20051;-84
2024/04/05 01:43:08;;;;;;;9.77;3.25;;;;;;;9.96;100.00;100339.53;4931470;29;20055;-85
2024/04/05 01:45:34;;;;;;;12.00;3.55;;;;;;;9.94;100.00;100346.53;4929889;28;20495;-86
2024/04/05 01:48:00;;;;;;;12.48;2.92;;;;;;;9.89;100.00;100343.94;4928927;28;20051;-86
2024/04/05 01:50:27;;;;;;;15.25;4.10;;;;;;;9.88;100.00;100349.19;4927787;29;20085;-86
2024/04/05 01:52:52;;;;;;;14.00;3.95;;;;;;;9.87;100.00;100350.94;4928684;28;20061;-87
2024/04/05 01:55:19;;;;;;;17.98;3.58;;;;;;;9.85;100.00;100350.09;4941411;29;20039;-85
2024/04/05 01:57:45;;;;;;;15.00;4.03;;;;;;;9.82;100.00;100352.75;4945184;28;20043;-85
2024/04/05 02:00:13;;;;;;;12.48;3.35;;;;;;;9.82;100.00;100355.38;4944120;29;20122;-86
2024/04/05 02:02:39;;;;;;;17.88;3.60;;;;;;;9.81;100.00;100345.78;4925474;28;20047;-86
2024/04/05 02:05:06;;;;;;;12.35;3.38;;;;;;;9.82;100.00;100355.38;4932170;28;20055;-84
2024/04/05 02:07:32;;;;;;;15.40;2.92;;;;;;;9.79;100.00;100355.41;4929309;29;20070;-85
2024/04/05 02:09:58;;;;;;;21.45;4.10;;;;;;;9.81;100.00;100347.53;4944994;28;20060;-86
2024/04/05 02:12:28;;;;;;;10.77;2.72;;;;;;;9.82;100.00;100352.75;4948828;29;20054;-83
2024/04/05 02:14:55;;;;;;;15.45;3.53;;;;;;;9.83;100.00;100351.88;4926270;29;20501;-83
2024/04/05 02:17:21;;;;;;;22.40;3.28;;;;;;;9.80;100.00;100345.81;4942861;29;20047;-85
2024/04/05 02:19:50;;;;;;;17.85;5.28;;;;;;;9.83;100.00;100346.66;4927150;29;20107;-86
2024/04/05 02:22:16;;;;;;;14.43;4.03;;;;;;;9.85;100.00;100344.00;4927290;29;20052;-85
2024/04/05 02:24:43;;;;;;;9.07;2.40;;;;;;;9.82;100.00;100346.66;4926646;29;20043;-85
2024/04/05 02:27:09;;;;;;;13.07;3.88;;;;;;;9.82;100.00;100346.66;4919869;29;20043;-84
2024/04/05 02:29:37;;;;;;;12.70;3.25;;;;;;;9.90;100.00;100352.66;4927773;29;20050;-86
2024/04/05 02:32:03;;;;;;;9.70;2.78;;;;;;;9.98;100.00;100349.97;4927720;29;20566;-85
2024/04/05 02:34:29;;;;;;;16.77;5.32;;;;;;;9.99;100.00;100342.09;4922121;29;20052;-85
2024/04/05 02:36:55;;;;;;;17.85;3.97;;;;;;;10.03;100.00;100342.94;4922534;29;20059;-87
2024/04/05 02:39:21;;;;;;;11.77;3.40;;;;;;;10.10;100.00;100342.84;4942696;29;20546;-85
2024/04/05 02:41:48;;;;;;;17.98;3.65;;;;;;;10.19;100.00;100339.22;4926410;29;20691;-86
2024/04/05 02:44:15;;;;;;;10.40;2.72;;;;;;;10.33;100.00;100346.91;4943279;29;20059;-85
2024/04/05 02:46:42;;;;;;;25.05;3.58;;;;;;;10.45;100.00;100345.06;4928649;29;20055;-85
2024/04/05 02:49:09;;;;;;;10.52;3.38;;;;;;;10.51;100.00;100348.47;4940936;29;20023;-84
2024/04/05 02:51:35;;;;;;;19.20;3.05;;;;;;;10.52;100.00;100351.94;4922868;29;20048;-85
2024/04/05 02:54:03;;;;;;;14.27;3.17;;;;;;;10.52;100.00;100357.16;4924493;29;20051;-86
2024/04/05 02:56:29;;;;;;;19.98;3.53;;;;;;;10.46;100.00;100357.28;4924901;29;20054;-86
2024/04/05 02:58:57;;;;;;;9.88;2.67;;;;;;;10.40;100.00;100358.19;4924102;29;20047;-86
2024/04/05 03:01:23;;;;;;;17.95;3.30;;;;;;;10.37;100.00;100355.63;4923701;29;20067;-87
2024/04/05 03:03:50;;;;;;;10.68;2.72;;;;;;;10.43;100.00;100355.56;4925490;29;20047;-86
2024/04/05 03:06:17;;;;;;;12.88;2.97;;;;;;;10.45;100.00;100359.00;4924728;29;20063;-84
2024/04/05 03:08:44;;;;;;;17.08;3.28;;;;;;;10.42;100.00;100364.28;4928750;29;20036;-87
2024/04/05 03:11:09;;;;;;;13.57;3.15;;;;;;;10.38;100.00;100360.84;4930373;29;20036;-85
2024/04/05 03:13:36;;;;;;;9.65;2.72;;;;;;;10.36;100.00;100361.75;4922824;29;20048;-86
2024/04/05 03:16:02;;;;;;;15.30;4.15;;;;;;;10.34;100.00;100366.09;4941458;29;20051;-86
2024/04/05 03:18:31;;;;;;;8.38;3.30;;;;;;;10.31;100.00;100364.41;4943095;29;20043;-84
2024/04/05 03:20:57;;;;;;;16.60;3.83;;;;;;;10.32;100.00;100362.63;4942614;29;20055;-86
2024/04/05 03:23:24;;;;;;;16.45;2.70;;;;;;;10.25;100.00;100369.69;4926286;29;20071;-85
2024/04/05 03:25:50;;;;;;;17.90;3.40;;;;;;;10.21;100.00;100368.00;4927144;29;20480;-86
2024/04/05 03:28:17;;;;;;;20.58;3.83;;;;;;;10.25;100.00;100369.69;4924908;28;20521;-85
2024/04/05 03:30:42;;;;;;;16.85;3.00;;;;;;;10.30;100.00;100369.63;4927007;29;20027;-86
2024/04/05 03:33:09;;;;;;;10.18;3.85;;;;;;;10.35;100.00;100373.97;4927405;29;20241;-85
2024/04/05 03:35:37;;;;;;;10.82;2.25;;;;;;;10.40;100.00;100377.41;4926027;28;20407;-86
2024/04/05 03:38:04;;;;;;;14.95;3.78;;;;;;;10.50;100.00;100374.66;4937716;29;20075;-86
2024/04/05 03:40:31;;;;;;;7.03;2.75;;;;;;;10.53;100.00;100379.84;4939853;29;20061;-87
2024/04/05 03:42:57;;;;;;;8.20;2.63;;;;;;;10.56;100.00;100378.06;4943246;29;20059;-86
2024/04/05 03:45:23;;;;;;;13.95;2.75;;;;;;;10.59;100.00;100371.91;4926175;29;20095;-85
2024/04/05 03:47:50;;;;;;;10.88;2.63;;;;;;;10.62;100.00;100369.25;4925789;29;20385;-85
2024/04/05 03:50:17;;;;;;;7.20;2.58;;;;;;;10.64;100.00;100372.72;4924574;29;20035;-84
2024/04/05 03:52:45;;;;;;;10.77;2.53;;;;;;;10.67;100.00;100375.28;4925860;29;20159;-85
2024/04/05 03:55:11;;;;;;;15.25;3.65;;;;;;;10.72;100.00;100378.72;4921905;29;20106;-87
2024/04/05 03:57:37;;;;;;;14.15;2.95;;;;;;;10.71;100.00;100379.59;4925091;29;20047;-85
2024/04/05 04:00:06;;;;;;;12.18;3.45;;;;;;;10.73;100.00;100385.69;4944583;29;20489;-85
2024/04/05 04:02:31;;;;;;;19.95;4.05;;;;;;;10.74;100.00;100386.53;4925688;29;20051;-85
2024/04/05 04:04:58;;;;;;;18.00;3.30;;;;;;;10.76;100.00;100395.25;4921080;29;20507;-87
2024/04/05 04:07:24;;;;;;;12.35;2.63;;;;;;;10.81;100.00;100401.28;4935875;29;20047;-86
2024/04/05 04:09:53;;;;;;;9.63;2.13;;;;;;;10.86;100.00;100401.19;4925390;29;20138;-86
2024/04/05 04:12:22;;;;;;;13.85;3.08;;;;;;;10.90;100.00;100403.78;4920582;29;20558;-85
2024/04/05 04:14:49;;;;;;;9.65;2.70;;;;;;;10.92;100.00;100398.50;4937103;29;20043;-86
2024/04/05 04:17:15;;;;;;;13.95;4.82;;;;;;;10.92;100.00;100403.75;4941127;28;20380;-86
2024/04/05 04:22:53;;;;;;;11.40;2.45;;;;;;;10.98;100.00;100414.13;4954887;28;20253;-86
2024/04/05 04:25:25;;;;;;;10.02;2.35;;;;;;;11.01;100.00;100402.75;4930657;29;20505;-88
2024/04/05 04:27:52;;;;;;;12.77;2.40;;;;;;;11.02;100.00;100407.97;4927867;29;20043;-87
2024/04/05 04:30:18;;;;;;;9.60;2.17;;;;;;;11.02;100.00;100410.59;4928645;29;20047;-85
2024/04/05 04:32:44;;;;;;;12.43;3.10;;;;;;;11.04;100.00;100414.06;4940313;29;20143;-85
2024/04/05 04:35:11;;;;;;;14.80;3.35;;;;;;;11.03;100.00;100412.31;4926480;29;20126;-85
2024/04/05 04:37:38;;;;;;;14.52;2.75;;;;;;;11.03;100.00;100412.31;4927900;29;20051;-86
2024/04/05 04:40:06;;;;;;;11.27;2.58;;;;;;;11.01;100.00;100408.00;4926481;28;20055;-87
2024/04/05 04:42:31;;;;;;;13.30;2.55;;;;;;;10.99;100.00;100404.50;4923920;29;20051;-87
2024/04/05 04:44:58;;;;;;;9.02;2.75;;;;;;;10.99;100.00;100413.25;4923975;29;20123;-87
2024/04/05 04:47:25;;;;;;;10.45;2.88;;;;;;;11.03;100.00;100419.28;4921336;28;20081;-87
2024/04/05 04:49:53;;;;;;;13.90;4.15;;;;;;;11.07;100.00;100416.63;4913204;29;20498;-88
2024/04/05 04:52:18;;;;;;;13.27;2.97;;;;;;;11.09;100.00;100414.84;4947153;29;20050;-88
2024/04/05 04:54:45;;;;;;;12.80;2.80;;;;;;;11.13;100.00;100415.66;4933936;29;20066;-88
2024/04/05 04:57:11;;;;;;;9.80;2.53;;;;;;;11.13;100.00;100399.06;4915088;28;20043;-87
2024/04/05 04:59:40;;;;;;;14.65;3.88;;;;;;;11.08;100.00;100397.41;4945310;29;20059;-87
2024/04/05 05:02:08;;;;;;;8.00;2.83;;;;;;;11.07;100.00;100402.66;4950590;28;20047;-86
2024/04/05 05:04:36;;;;;;;8.48;2.20;;;;;;;11.06;100.00;100406.16;4927714;29;20130;-86
2024/04/05 05:07:06;;;;;;;14.10;3.35;;;;;;;11.08;100.00;100401.75;4922270;29;20047;-88
2024/04/05 05:09:35;;;;;;;10.63;3.63;;;;;;;11.12;100.00;100403.47;4930898;28;20026;-87
2024/04/05 05:12:01;;;;;;;11.65;3.58;;;;;;;11.18;100.00;100408.59;4920167;29;20062;-88
2024/04/05 05:14:28;;;;;;;10.48;2.28;;;;;;;11.19;100.00;100407.69;4949242;29;20067;-88
2024/04/05 05:16:54;;;;;;;8.85;2.35;;;;;;;11.20;100.00;100404.19;4932891;29;20055;-88
2024/04/05 05:19:26;;;;;;;18.45;2.80;;;;;;;11.17;100.00;100398.13;4932797;29;20036;-88
2024/04/05 05:21:52;;;;;;;15.38;3.55;;;;;;;11.19;100.00;100402.47;4935158;28;20118;-88
2024/04/05 05:24:20;;;;;;;13.18;2.65;;;;;;;11.21;100.00;100416.41;4952767;29;20082;-88
2024/04/05 05:26:48;;;;;;;11.15;2.45;;;;;;;11.23;100.00;100409.38;4939655;28;20044;-87
2024/04/05 05:29:15;;;;;;;12.10;3.90;;;;;;;11.21;100.00;100405.06;4935946;28;20050;-88
2024/04/05 05:31:42;;;;;;;10.27;4.47;;;;;;;11.28;100.00;100405.81;4954032;28;20059;-88
2024/04/05 05:34:09;;;;;;;12.23;2.70;;;;;;;11.31;100.00;100406.63;4954318;29;20039;-87
2024/04/05 05:36:42;;;;;;;13.70;2.90;;;;;;;11.31;100.00;100419.75;4937158;28;20051;-88
2024/04/05 05:39:11;;;;;;;9.85;2.53;;;;;;;11.34;100.00;100424.06;4956211;28;20042;-87
2024/04/05 05:41:39;;;;;;;13.98;3.00;;;;;;;11.39;100.00;100427.50;4948223;28;20043;-87
2024/04/05 05:44:08;;;;;;;6.60;2.40;;;;;;;11.43;100.00;100423.91;4945068;29;20082;-85
2024/04/05 05:46:34;;;;;;;10.02;3.28;;;;;;;11.47;100.00;100432.59;4934249;29;20118;-88
2024/04/05 05:49:09;;;;;;;17.30;3.15;;;;;;;11.48;100.00;100429.09;4938001;28;20042;-88
2024/04/05 05:51:35;;;;;;;12.98;4.00;;;;;;;11.55;100.00;100428.97;4937749;28;20043;-87
2024/04/05 05:54:08;;;;;;;20.38;3.05;;;;;;;11.61;100.00;100425.38;4939346;28;20051;-85
2024/04/05 05:56:38;;;;;;;9.90;3.13;;;;;;;11.68;100.00;100423.50;4934417;28;20031;-86
2024/04/05 05:59:09;;;;;;;11.98;2.88;;;;;;;11.77;100.00;100423.34;4949639;28;20023;-86
2024/04/05 06:01:35;;;;;;;9.98;3.05;;;;;;;11.82;100.00;100431.16;4949289;28;20471;-87
2024/04/05 06:04:03;;;;;;;10.10;2.22;;;;;;;11.87;100.00;100427.53;4933033;29;20071;-87
2024/04/05 06:06:42;;;;;;;10.75;3.15;;;;;;;11.91;100.00;100431.88;4923782;29;20241;-88
2024/04/05 06:09:14;;;;;;;11.32;2.85;;;;;;;11.96;100.00;100420.44;4953666;28;20142;-87
2024/04/05 06:11:40;;;;;;;14.18;2.40;;;;;;;11.97;100.00;100424.78;4940989;28;20047;-87
2024/04/05 06:14:07;;;;;;;10.27;2.42;;;;;;;12.01;100.00;100429.09;4937596;28;20046;-87
2024/04/05 06:16:34;;;;;;;14.27;3.05;;;;;;;12.03;100.00;100427.31;4935948;29;20494;-87
2024/04/05 06:19:02;;;;;;;9.68;2.72;;;;;;;12.08;100.00;100422.84;4930089;28;20121;-85
2024/04/05 06:21:30;;;;;;;9.07;2.22;;;;;;;12.15;100.00;100428.81;4948384;29;20047;-85
2024/04/05 06:23:59;;;;;;;10.95;2.75;;;;;;;12.21;100.00;100441.84;4952686;28;20055;-87
2024/04/05 06:26:26;;;;;;;7.25;2.60;;;;;;;12.28;100.00;100443.47;4934180;29;20047;-87
2024/04/05 06:28:54;;;;;;;11.90;2.63;;;;;;;12.34;100.00;100443.31;4935565;28;20118;-86
2024/04/05 06:31:20;;;;;;;12.15;2.60;;;;;;;12.40;100.00;100447.59;4952149;29;20101;-84
2024/04/05 06:33:49;;;;;;;8.00;2.42;;;;;;;12.48;100.00;100457.94;4934981;28;20051;-85
2024/04/05 06:36:15;;;;;;;5.65;1.60;;;;;;;12.50;100.00;100443.00;4931338;29;20058;-85
2024/04/05 06:38:42;;;;;;;14.48;3.47;;;;;;;12.58;100.00;100447.22;4935377;28;20118;-87
2024/04/05 06:41:13;;;;;;;8.65;1.95;;;;;;;12.63;100.00;100448.88;4937727;29;20058;-87
2024/04/05 06:43:41;;;;;;;10.30;2.13;;;;;;;12.76;100.00;100442.47;4937642;29;20107;-85
2024/04/05 06:46:07;;;;;;;9.88;1.75;;;;;;;12.79;100.00;100452.94;4944851;29;20059;-86
2024/04/05 06:48:36;;;;;;;6.82;1.67;;;;;;;12.96;100.00;100447.31;4933748;29;20039;-86
2024/04/05 06:51:11;;;;;;;9.32;2.97;;;;;;;12.93;100.00;100444.72;4931834;28;20486;-85
2024/04/05 06:53:40;;;;;;;8.23;1.52;;;;;;;13.03;100.00;100450.66;4915789;29;20043;-87
2024/04/05 06:56:06;;;;;;;11.45;2.92;;;;;;;13.10;100.00;100448.75;4929049;29;20118;-85
2024/04/05 06:58:34;;;;;;;6.03;2.25;;;;;;;13.16;100.00;100443.34;4931273;28;20047;-85
2024/04/05 07:01:01;;;;;;;7.07;1.70;;;;;;;13.08;100.00;100444.38;4935229;29;20085;-86
2024/04/05 07:03:31;;;;;;;26.40;5.25;;;;;;;13.20;100.00;100445.88;4916712;29;20051;-85
2024/04/05 07:06:00;;;;;;;7.82;2.22;;;;;;;13.17;100.00;100442.47;4948182;29;20055;-87
2024/04/05 07:08:30;;;;;;;9.10;1.95;;;;;;;13.15;100.00;100446.88;4930613;29;20047;-87
2024/04/05 07:10:57;;;;;;;9.63;2.95;;;;;;;13.21;100.00;100441.50;4935939;29;20118;-88
2024/04/05 07:13:25;;;;;;;7.75;2.88;;;;;;;13.34;100.00;100449.97;4936096;29;20052;-87
2024/04/05 07:15:52;;;;;;;8.63;2.00;;;;;;;13.33;100.00;100445.59;4935604;29;20059;-84
2024/04/05 07:18:24;;;;;;;11.10;2.58;;;;;;;13.40;100.00;100445.44;4931570;29;20664;-85
2024/04/05 07:20:54;;;;;;;16.02;3.33;;;;;;;13.33;100.00;100449.06;4928242;29;20043;-84
2024/04/05 07:23:21;;;;;;;9.20;2.65;;;;;;;13.31;100.00;100450.00;4935561;29;20050;-83
2024/04/05 07:25:49;;;;;;;10.48;2.50;;;;;;;13.38;100.00;100460.38;4935759;29;20047;-82
2024/04/05 07:28:22;;;;;;;8.68;2.97;;;;;;;13.37;100.00;100455.16;4921384;29;20082;-84
2024/04/05 07:30:49;;;;;;;11.25;2.63;;;;;;;13.36;100.00;100456.94;4921030;29;20044;-87
2024/04/05 07:33:28;;;;;;;15.32;2.85;;;;;;;13.48;100.00;100457.53;4938226;29;20044;-84
2024/04/05 07:35:57;;;;;;;5.70;2.88;;;;;;;13.65;100.00;100443.97;4938174;29;20043;-85
2024/04/05 07:41:08;;;;;;;11.25;2.22;;;;;;;14.46;100.00;100429.56;4919956;29;20050;-86
2024/04/05 07:43:41;;;;;;;9.23;2.60;;;;;;;14.12;100.00;100438.38;4951044;28;20059;-85
2024/04/05 07:46:08;;;;;;;8.80;2.45;;;;;;;13.83;100.00;100440.88;4920976;29;20071;-86
2024/04/05 07:48:39;;;;;;;6.88;2.80;;;;;;;13.77;100.00;100427.03;4920499;29;20047;-84
2024/04/05 07:51:07;;;;;;;13.45;2.92;;;;;;;13.54;100.00;100439.81;4950745;28;20130;-86
2024/04/05 07:53:33;;;;;;;11.18;2.30;;;;;;;13.37;100.00;100424.47;4938169;28;20111;-85
2024/04/05 07:56:09;;;;;;;8.68;1.67;;;;;;;13.22;100.00;100433.56;4938671;29;20150;-83
2024/04/05 07:58:37;;;;;;;4.00;1.88;;;;;;;13.15;100.00;100441.63;4933312;29;20061;-85
2024/04/05 08:04:59;;;;;;;12.43;3.13;;;;;;;13.42;100.00;100458.56;5068501;27;20804;-84
2024/04/05 08:07:31;;;;;;;5.55;2.30;;;;;;;14.15;100.00;100451.47;5033184;28;20038;-84
2024/04/05 08:10:05;;;;;;;7.68;2.20;;;;;;;14.60;100.00;100440.56;5116128;28;20046;-85
2024/04/05 08:12:43;;;;;;;8.38;1.80;;;;;;;15.39;100.00;100454.00;5030015;28;20440;-82
2024/04/05 08:15:16;;;;;;;8.65;3.72;;;;;;;15.76;100.00;100441.34;5030457;28;20369;-85
2024/04/05 08:17:45;;;;;;;4.68;2.00;;;;;;;16.28;100.00;100434.28;5044440;28;20148;-82
2024/04/05 08:20:12;;;;;;;6.60;2.08;;;;;;;16.49;98.52;100437.94;5117216;28;20045;-84
2024/04/05 08:22:41;;;;;;;8.57;1.80;;;;;;;16.82;96.76;100423.50;5066961;28;20041;-83
2024/04/05 08:25:12;;;;;;;6.68;2.13;;;;;;;16.51;95.32;100406.16;5048879;28;20057;-83
2024/04/05 08:27:47;;;;;;;11.13;1.90;;;;;;;16.29;95.76;100396.38;5032847;28;20046;-84
2024/04/05 08:30:18;;;;;;;7.10;2.00;;;;;;;15.68;99.04;100383.56;5026785;28;20084;-85
2024/04/05 08:32:53;;;;;;;9.75;2.45;;;;;;;15.73;99.25;100388.69;5022521;28;20033;-86
2024/04/05 08:35:24;;;;;;;6.70;2.47;;;;;;;15.57;100.00;100386.56;5126938;27;20076;-83
2024/04/05 08:37:50;;;;;;;6.28;1.92;;;;;;;15.43;100.00;100394.09;5031326;28;20042;-84
2024/04/05 08:40:28;;;;;;;7.55;1.85;;;;;;;15.68;99.87;100402.03;5018586;28;20069;-85
2024/04/05 08:43:00;;;;;;;9.93;2.35;;;;;;;15.39;100.00;100380.97;5106515;27;20065;-84
2024/04/05 08:45:32;;;;;;;6.28;1.65;;;;;;;16.16;98.99;100377.47;5086364;28;20046;-85
2024/04/05 08:48:06;;;;;;;8.40;2.25;;;;;;;17.16;88.67;100379.88;5023070;28;20427;-85
2024/04/05 08:50:43;;;;;;;7.70;1.70;;;;;;;18.13;82.80;100370.47;5036325;28;20392;-84
2024/04/05 08:53:10;;;;;;;8.95;2.35;;;;;;;18.82;80.04;100373.47;5035091;28;20505;-85
2024/04/05 08:55:40;;;;;;;8.10;1.80;;;;;;;17.86;81.07;100376.03;5018259;28;20356;-86
2024/04/05 08:58:09;;;;;;;4.97;1.75;;;;;;;18.58;78.65;100370.22;5014457;28;20046;-85
2024/04/05 09:00:47;;;;;;;3.83;1.35;;;;;;;19.30;73.60;100360.59;5061613;28;20083;-85
2024/04/05 09:03:18;;;;;;;7.75;2.13;;;;;;;20.55;69.59;100358.53;5021281;28;20042;-84
2024/04/05 09:05:45;;;;;;;7.78;1.60;;;;;;;19.55;71.09;100365.50;5005916;28;20049;-85
2024/04/05 09:08:11;;;;;;;10.88;2.28;;;;;;;19.33;71.63;100365.72;5000389;28;20042;-85
2024/04/05 09:10:39;;;;;;;8.18;1.58;;;;;;;19.53;71.92;100358.53;5045488;28;20031;-84
2024/04/05 09:13:07;;;;;;;11.27;2.30;;;;;;;19.24;71.19;100355.56;5032050;28;20030;-85
2024/04/05 09:15:36;;;;;;;6.18;1.63;;;;;;;20.17;68.38;100346.38;5008306;28;20048;-85
2024/04/05 09:18:03;;;;;;;8.48;1.80;;;;;;;20.66;65.69;100350.78;5007444;28;20051;-85
2024/04/05 09:20:36;;;;;;;6.75;1.77;;;;;;;19.71;66.60;100339.03;5032058;28;20049;-86
2024/04/05 09:23:05;;;;;;;4.15;2.00;;;;;;;20.08;68.06;100338.91;4995101;28;20522;-84
2024/04/05 09:25:38;;;;;;;4.82;2.22;;;;;;;20.15;66.95;100340.28;5012676;28;20045;-84
2024/04/05 09:28:15;;;;;;;6.40;1.63;;;;;;;19.26;70.33;100328.03;5095811;28;20053;-86
2024/04/05 09:30:42;;;;;;;8.65;1.50;;;;;;;18.44;73.55;100318.69;5032161;28;20050;-87
2024/04/05 09:33:08;;;;;;;8.13;1.65;;;;;;;18.21;76.21;100310.97;5027749;28;20046;-87
2024/04/05 09:35:43;;;;;;;5.35;1.70;;;;;;;17.60;79.32;100320.69;5041211;28;20062;-83
2024/04/05 09:38:20;;;;;;;4.30;1.60;;;;;;;16.94;83.60;100314.63;5019982;28;20047;-85
2024/04/05 09:40:52;;;;;;;6.57;1.65;;;;;;;16.83;85.72;100312.41;5007617;28;20030;-86
2024/04/05 09:43:24;;;;;;;7.13;2.17;;;;;;;16.76;87.17;100305.63;5010999;28;20091;-85
2024/04/05 09:45:52;;;;;;;4.80;1.73;;;;;;;16.85;88.03;100304.41;5030668;28;20339;-86
2024/04/05 09:48:31;;;;;;;4.45;2.00;;;;;;;17.21;85.56;100301.19;5007697;28;20070;-85
2024/04/05 09:51:04;;;;;;;7.88;1.80;;;;;;;17.45;84.68;100299.28;5016590;28;20042;-85
2024/04/05 09:56:27;;;;;;;3.63;1.60;;;;;;;17.59;84.33;100277.50;5031437;28;20036;-85
2024/04/05 09:58:58;;;;;;;2.35;1.45;;;;;;;17.47;84.30;100276.25;5022964;28;20046;-84
2024/04/05 10:01:27;;;;;;;2.90;1.20;;;;;;;17.37;84.31;100269.66;5029413;28;20111;-84
2024/04/05 10:03:57;;;;;;;4.80;1.35;;;;;;;17.45;84.59;100287.84;5040185;28;20042;-87
2024/04/05 10:09:25;;;;;;;4.22;1.10;;;;;;;16.96;86.09;100283.72;5008066;28;20132;-83
2024/04/05 10:11:52;;;;;;;5.22;1.80;;;;;;;16.86;86.23;100280.53;5002926;28;20111;-85
2024/04/05 10:14:31;;;;;;;2.03;0.85;;;;;;;16.69;87.77;100272.44;5036523;28;20037;-84
2024/04/05 10:17:11;;;;;;;2.22;0.93;;;;;;;16.33;90.43;100263.28;5018250;28;20050;-86
2024/04/05 10:22:26;;;;;;;2.78;1.20;;;;;;;16.19;93.16;100250.63;5005422;28;20052;-86
2024/04/05 10:24:54;;;;;;;5.35;1.20;;;;;;;16.12;94.15;100257.03;5034665;27;20489;-85
2024/04/05 10:27:27;;;;;;;2.85;1.00;;;;;;;16.36;93.33;100255.25;5047913;28;20068;-87
2024/04/05 10:30:06;;;;;;;4.47;1.20;;;;;;;16.35;92.88;100245.59;5014848;28;20046;-85
2024/04/05 10:32:37;;;;;;;2.03;1.17;;;;;;;16.27;93.28;100255.59;5010755;28;20045;-86
2024/04/05 10:35:11;;;;;;;2.45;0.70;;;;;;;16.36;92.24;100249.97;5028977;28;20154;-83
2024/04/05 10:37:43;;;;;;;3.55;1.20;;;;;;;16.40;91.59;100244.53;5010087;28;20054;-84
2024/04/05 10:40:12;;;;;;;3.88;1.23;;;;;;;16.44;91.75;100240.84;4992289;28;20056;-87
2024/04/05 10:42:43;;;;;;;5.53;1.30;;;;;;;16.54;91.26;100242.19;5039700;28;20050;-86
2024/04/05 10:45:12;;;;;;;3.83;1.17;;;;;;;16.49;90.91;100228.31;4998367;28;20046;-84
2024/04/05 10:47:40;;;;;;;3.72;1.67;;;;;;;16.56;91.57;100229.81;5018055;28;20072;-86
2024/04/05 10:50:08;;;;;;;2.80;0.80;;;;;;;16.66;89.98;100233.78;5049544;28;20042;-86
2024/04/05 10:52:42;;;;;;;4.47;1.30;;;;;;;16.77;90.23;100229.84;5029939;28;20099;-85
2024/04/05 10:55:15;;;;;;;2.83;0.85;;;;;;;16.84;89.59;100221.59;4994946;28;20137;-86
2024/04/05 10:57:42;;;;;;;3.22;1.15;;;;;;;16.93;90.20;100223.00;4996335;28;20091;-85
2024/04/05 11:00:11;;;;;;;5.32;1.15;;;;;;;16.99;89.64;100220.13;5039606;28;20076;-85
2024/04/05 11:02:45;;;;;;;3.85;0.70;;;;;;;17.07;89.40;100211.84;5000321;28;20054;-87
2024/04/05 11:05:20;;;;;;;1.65;1.10;;;;;;;17.03;90.21;100199.69;4992819;28;20046;-85
2024/04/05 11:08:04;;;;;;;5.00;1.30;;;;;;;16.95;90.02;100184.16;5023408;28;20062;-86
2024/04/05 11:10:35;;;;;;;5.97;1.15;;;;;;;16.79;90.00;100181.28;5113272;27;20088;-86
2024/04/05 11:13:25;;;;;;;2.53;0.70;;;;;;;17.07;89.08;100184.56;5091660;28;20100;-86
2024/04/05 11:16:02;;;;;;;3.70;1.20;;;;;;;17.17;88.84;100178.78;5104004;28;20059;-85
2024/04/05 11:18:38;;;;;;;3.95;1.38;;;;;;;17.14;88.37;100162.19;5087866;28;20040;-85
2024/04/05 11:21:05;;;;;;;6.03;1.58;;;;;;;17.16;86.76;100163.84;5101784;28;20043;-88
2024/04/05 11:23:32;;;;;;;4.90;1.30;;;;;;;17.17;86.56;100162.91;5085304;28;20079;-86
2024/04/05 11:26:03;;;;;;;3.40;1.10;;;;;;;17.31;86.19;100157.03;5122794;28;20408;-87
2024/04/05 11:28:34;;;;;;;7.07;1.17;;;;;;;17.16;86.13;100147.97;5085280;28;20039;-86
2024/04/05 11:31:08;;;;;;;3.00;0.70;;;;;;;17.16;86.54;100145.31;5086814;28;20077;-85
2024/04/05 11:33:49;;;;;;;1.75;1.35;;;;;;;17.13;86.16;100145.47;5096519;28;20120;-87
2024/04/05 11:36:17;;;;;;;5.57;1.23;;;;;;;17.25;85.71;100141.41;5095611;28;20031;-86
2024/04/05 11:38:46;;;;;;;2.90;1.05;;;;;;;17.34;84.96;100135.72;5100000;28;20055;-85
2024/04/05 11:41:18;;;;;;;4.68;1.33;;;;;;;17.23;85.37;100126.56;5087298;28;20070;-84
2024/04/05 11:43:47;;;;;;;4.13;1.23;;;;;;;17.19;86.02;100123.19;5101978;28;20091;-85